Time;durP1;ratioP1;P1;durP2;ratioP2;P2;SDS_P1;SDS_P2;PMS_P1;PMS_P2;Temp;Humidity;BMP_temperature;BMP_pressure;BME280_temperature;BME280_humidity;BME280_pressure;Samples;Min_cycle;Max_cycle;Signal;HPM_P1;HPM_P2
2022/08/24 00:01:16;;;;;;;0.00;0.00;;;20.10;99.90;;;;;;5061251;28;20534;-72
2022/08/24 00:03:45;;;;;;;0.00;0.00;;;20.00;99.90;;;;;;5061397;28;20725;-73
2022/08/24 00:06:18;;;;;;;0.00;0.00;;;20.00;99.90;;;;;;5061739;28;20438;-72
2022/08/24 00:08:47;;;;;;;0.00;0.00;;;20.00;99.90;;;;;;5061512;28;20954;-75
2022/08/24 00:11:15;;;;;;;0.00;0.00;;;20.00;99.90;;;;;;5061273;28;20440;-73
2022/08/24 00:13:43;;;;;;;0.00;0.00;;;20.00;99.90;;;;;;5060929;28;20439;-74
2022/08/24 00:16:11;;;;;;;0.00;0.00;;;20.00;99.90;;;;;;5060798;28;20700;-73
2022/08/24 00:18:40;;;;;;;0.00;0.00;;;19.90;99.90;;;;;;5061396;28;20552;-73
2022/08/24 00:21:08;;;;;;;0.00;0.00;;;19.90;99.90;;;;;;5061301;28;21079;-72
2022/08/24 00:23:37;;;;;;;0.00;0.00;;;19.90;99.90;;;;;;5060360;28;21022;-73
2022/08/24 00:26:06;;;;;;;0.00;0.00;;;19.80;99.90;;;;;;5061494;28;20435;-73
2022/08/24 00:28:35;;;;;;;0.00;0.00;;;19.80;99.90;;;;;;5060898;28;20710;-73
2022/08/24 00:31:03;;;;;;;0.00;0.00;;;19.70;99.90;;;;;;5061225;28;20505;-73
2022/08/24 00:33:34;;;;;;;0.00;0.00;;;19.70;99.90;;;;;;5061212;28;20435;-74
2022/08/24 00:36:03;;;;;;;0.00;0.00;;;19.60;99.90;;;;;;5060882;28;20450;-73
2022/08/24 00:38:34;;;;;;;0.00;0.00;;;19.60;99.90;;;;;;5060695;28;20462;-74
2022/08/24 00:41:04;;;;;;;0.00;0.00;;;19.50;99.90;;;;;;5060549;28;21032;-73
2022/08/24 00:43:33;;;;;;;0.00;0.00;;;19.50;99.90;;;;;;5059536;28;20926;-74
2022/08/24 00:46:13;;;;;;;0.00;0.00;;;19.50;99.90;;;;;;5060785;28;20439;-73
2022/08/24 00:48:45;;;;;;;0.00;0.00;;;19.50;99.90;;;;;;5060701;28;20743;-73
2022/08/24 00:51:18;;;;;;;0.00;0.00;;;19.50;99.90;;;;;;5060970;28;20546;-73
2022/08/24 00:53:50;;;;;;;0.00;0.00;;;19.40;99.90;;;;;;5060332;28;20445;-73
2022/08/24 00:56:26;;;;;;;0.00;0.00;;;19.40;99.90;;;;;;5060853;28;20924;-74
2022/08/24 00:58:59;;;;;;;0.00;0.00;;;19.40;99.90;;;;;;5060646;28;20465;-73
2022/08/24 01:01:28;;;;;;;0.00;0.00;;;19.40;99.90;;;;;;5060054;28;20548;-73
2022/08/24 01:03:58;;;;;;;0.00;0.00;;;19.40;99.90;;;;;;5060187;28;20459;-72
2022/08/24 01:06:26;;;;;;;0.00;0.00;;;19.40;99.90;;;;;;5059186;28;20443;-73
2022/08/24 01:08:54;;;;;;;0.00;0.00;;;19.40;99.90;;;;;;5060003;28;20455;-74
2022/08/24 01:11:28;;;;;;;0.00;0.00;;;19.40;99.90;;;;;;5060518;28;20566;-73
2022/08/24 01:14:02;;;;;;;0.00;0.00;;;19.40;99.90;;;;;;5060863;28;20458;-73
2022/08/24 01:19:25;;;;;;;0.00;0.00;;;19.30;99.90;;;;;;5061470;28;20471;-73
2022/08/24 01:22:14;;;;;;;0.00;0.00;;;19.30;99.90;;;;;;5061378;28;21078;-73
2022/08/24 01:24:44;;;;;;;0.00;0.00;;;19.30;99.90;;;;;;5066720;28;20509;-72
2022/08/24 01:27:15;;;;;;;0.00;0.00;;;19.30;99.90;;;;;;5067335;28;20475;-75
2022/08/24 01:29:47;;;;;;;0.00;0.00;;;19.30;99.90;;;;;;5060279;28;20467;-74
2022/08/24 01:32:18;;;;;;;0.00;0.00;;;19.20;99.90;;;;;;5060428;28;20586;-74
2022/08/24 01:34:46;;;;;;;0.00;0.00;;;19.20;99.90;;;;;;5060077;28;20521;-72
2022/08/24 01:37:15;;;;;;;0.00;0.00;;;19.10;99.90;;;;;;5060209;28;20627;-73
2022/08/24 01:39:47;;;;;;;0.00;0.00;;;19.20;99.90;;;;;;5064340;28;20463;-72
2022/08/24 01:42:15;;;;;;;0.00;0.00;;;19.20;99.90;;;;;;5061811;28;20478;-73
2022/08/24 01:44:45;;;;;;;0.00;0.00;;;19.10;99.90;;;;;;5059817;28;20440;-72
2022/08/24 01:47:15;;;;;;;0.00;0.00;;;19.10;99.90;;;;;;5059771;28;20441;-72
2022/08/24 01:49:45;;;;;;;0.00;0.00;;;19.10;99.90;;;;;;5060285;28;20459;-71
2022/08/24 01:52:16;;;;;;;0.00;0.00;;;19.10;99.90;;;;;;5059610;28;20452;-73
2022/08/24 01:54:45;;;;;;;0.00;0.00;;;19.00;99.90;;;;;;5059317;28;20451;-73
2022/08/24 01:57:16;;;;;;;0.00;0.00;;;19.00;99.90;;;;;;5059175;28;20453;-73
2022/08/24 01:59:45;;;;;;;0.00;0.00;;;19.00;99.90;;;;;;5059526;28;20467;-73
2022/08/24 02:02:19;;;;;;;0.00;0.00;;;18.90;99.90;;;;;;5059090;28;20530;-72
2022/08/24 02:04:47;;;;;;;0.00;0.00;;;19.00;99.90;;;;;;5058985;28;20489;-73
2022/08/24 02:07:19;;;;;;;0.00;0.00;;;18.90;99.90;;;;;;5058676;28;20934;-75
2022/08/24 02:09:48;;;;;;;0.00;0.00;;;18.90;99.90;;;;;;5058936;28;20482;-75
2022/08/24 02:12:17;;;;;;;0.00;0.00;;;19.00;99.90;;;;;;5058719;28;20436;-75
2022/08/24 02:14:46;;;;;;;0.00;0.00;;;18.90;99.90;;;;;;5058737;28;20476;-73
2022/08/24 02:34:15;;;;;;;0.00;0.00;;;18.70;99.90;;;;;;5057922;28;20472;-75
2022/08/24 02:36:43;;;;;;;0.00;0.00;;;18.60;99.90;;;;;;5061559;28;20444;-77
2022/08/24 02:39:11;;;;;;;0.00;0.00;;;18.60;99.90;;;;;;5063481;28;20800;-76
2022/08/24 02:41:39;;;;;;;0.00;0.00;;;18.60;99.90;;;;;;5065157;28;20437;-77
2022/08/24 02:44:07;;;;;;;0.00;0.00;;;18.60;99.90;;;;;;5062820;28;20499;-75
2022/08/24 02:46:35;;;;;;;0.00;0.00;;;18.60;99.90;;;;;;5058735;28;20720;-76
2022/08/24 02:49:03;;;;;;;0.00;0.00;;;18.60;99.90;;;;;;5058748;28;20465;-74
2022/08/24 02:51:41;;;;;;;0.00;0.00;;;18.60;99.90;;;;;;5058836;28;20538;-76
2022/08/24 02:54:16;;;;;;;0.00;0.00;;;18.50;99.90;;;;;;5058555;28;20453;-75
2022/08/24 02:56:44;;;;;;;0.00;0.00;;;18.50;99.90;;;;;;5058388;28;20446;-76
2022/08/24 02:59:12;;;;;;;0.00;0.00;;;18.50;99.90;;;;;;5058747;28;20455;-74
2022/08/24 03:01:40;;;;;;;0.00;0.00;;;18.50;99.90;;;;;;5059036;28;20983;-75
2022/08/24 03:04:08;;;;;;;0.00;0.00;;;18.50;99.90;;;;;;5058125;28;20449;-76
2022/08/24 03:06:37;;;;;;;0.00;0.00;;;18.50;99.90;;;;;;5059504;28;20437;-81
2022/08/24 03:09:07;;;;;;;0.00;0.00;;;18.40;99.90;;;;;;5058324;28;21058;-72
2022/08/24 03:11:35;;;;;;;0.00;0.00;;;18.40;99.90;;;;;;5058240;28;20477;-71
2022/08/24 03:14:03;;;;;;;0.00;0.00;;;18.40;99.90;;;;;;5058495;28;20454;-71
2022/08/24 03:16:32;;;;;;;0.00;0.00;;;18.30;99.90;;;;;;5058171;28;20452;-70
2022/08/24 03:19:00;;;;;;;0.00;0.00;;;18.30;99.90;;;;;;5058130;28;20465;-70
2022/08/24 03:21:28;;;;;;;0.00;0.00;;;18.30;99.90;;;;;;5058155;28;20561;-70
2022/08/24 03:23:56;;;;;;;0.00;0.00;;;18.20;99.90;;;;;;5057771;28;20433;-70
2022/08/24 03:26:25;;;;;;;0.00;0.00;;;18.20;99.90;;;;;;5057940;28;20835;-69
2022/08/24 03:28:53;;;;;;;0.00;0.00;;;18.10;99.90;;;;;;5058241;28;20733;-73
2022/08/24 03:31:21;;;;;;;0.00;0.00;;;18.10;99.90;;;;;;5057647;28;20473;-71
2022/08/24 03:33:49;;;;;;;0.00;0.00;;;18.00;99.90;;;;;;5058212;28;20469;-72
2022/08/24 03:36:17;;;;;;;0.00;0.00;;;18.00;99.90;;;;;;5058204;28;20441;-74
2022/08/24 03:38:45;;;;;;;0.00;0.00;;;18.00;99.90;;;;;;5049868;28;20542;-76
2022/08/24 03:41:13;;;;;;;0.00;0.00;;;18.00;99.90;;;;;;5047192;28;20970;-74
2022/08/24 03:43:45;;;;;;;0.00;0.00;;;18.00;99.90;;;;;;5058894;28;20491;-74
2022/08/24 03:46:15;;;;;;;0.00;0.00;;;17.90;99.90;;;;;;5066139;28;20437;-72
2022/08/24 03:48:44;;;;;;;0.00;0.00;;;17.90;99.90;;;;;;5045309;28;20466;-72
2022/08/24 03:51:14;;;;;;;0.00;0.00;;;17.90;99.90;;;;;;5051171;28;20480;-72
2022/08/24 03:53:42;;;;;;;0.00;0.00;;;17.80;99.90;;;;;;5047406;28;20595;-72
2022/08/24 03:56:10;;;;;;;0.00;0.00;;;17.90;99.90;;;;;;5048695;28;20469;-72
2022/08/24 03:58:41;;;;;;;0.00;0.00;;;17.80;99.90;;;;;;5046056;28;20532;-72
2022/08/24 04:01:11;;;;;;;0.00;0.00;;;17.80;99.90;;;;;;5057209;28;20829;-71
2022/08/24 04:03:41;;;;;;;0.00;0.00;;;17.80;99.90;;;;;;5060867;28;20430;-70
2022/08/24 04:06:10;;;;;;;0.00;0.00;;;17.70;99.90;;;;;;5057788;28;20535;-72
2022/08/24 04:08:40;;;;;;;0.00;0.00;;;17.70;99.90;;;;;;5055689;28;20501;-72
2022/08/24 04:11:11;;;;;;;0.00;0.00;;;17.70;99.90;;;;;;5051422;28;20649;-71
2022/08/24 04:13:39;;;;;;;0.00;0.00;;;17.70;99.90;;;;;;5058957;28;20443;-75
2022/08/24 04:16:11;;;;;;;0.00;0.00;;;17.70;99.90;;;;;;5054549;28;20957;-70
2022/08/24 04:18:39;;;;;;;0.00;0.00;;;17.70;99.90;;;;;;5048072;28;20478;-68
2022/08/24 04:21:15;;;;;;;0.00;0.00;;;17.60;99.90;;;;;;5060594;28;20994;-68
2022/08/24 04:23:42;;;;;;;0.00;0.00;;;17.60;99.90;;;;;;5047485;28;20540;-68
2022/08/24 04:26:16;;;;;;;0.00;0.00;;;17.60;99.90;;;;;;5061334;28;20535;-66
2022/08/24 04:29:04;;;;;;;0.00;0.00;;;17.60;99.90;;;;;;5042285;28;20462;-67
2022/08/24 04:31:36;;;;;;;0.00;0.00;;;17.60;99.90;;;;;;5052354;28;20585;-68
2022/08/24 04:34:05;;;;;;;0.00;0.00;;;17.60;99.90;;;;;;5050007;28;20733;-69
2022/08/24 04:36:33;;;;;;;0.00;0.00;;;17.60;99.90;;;;;;5061260;28;20821;-69
2022/08/24 04:39:01;;;;;;;0.00;0.00;;;17.60;99.90;;;;;;5050255;28;20551;-67
2022/08/24 04:41:29;;;;;;;0.00;0.00;;;17.70;99.90;;;;;;5041325;28;20451;-69
2022/08/24 04:43:59;;;;;;;0.00;0.00;;;17.60;99.90;;;;;;5041014;28;20873;-70
2022/08/24 04:46:29;;;;;;;0.00;0.00;;;17.60;99.90;;;;;;5052158;28;20971;-68
2022/08/24 04:48:59;;;;;;;0.00;0.00;;;17.70;99.90;;;;;;5054648;28;20563;-69
2022/08/24 04:51:27;;;;;;;0.00;0.00;;;17.60;99.90;;;;;;5060746;28;20488;-68
2022/08/24 04:54:03;;;;;;;0.00;0.00;;;17.70;99.90;;;;;;5046760;28;20444;-68
2022/08/24 04:56:31;;;;;;;0.00;0.00;;;17.70;99.90;;;;;;5048116;28;20540;-73
2022/08/24 04:58:59;;;;;;;0.00;0.00;;;17.70;99.90;;;;;;5042475;28;20487;-72
2022/08/24 05:01:31;;;;;;;0.00;0.00;;;17.70;99.90;;;;;;5055308;28;20676;-71
2022/08/24 05:04:01;;;;;;;0.00;0.00;;;17.80;99.90;;;;;;5050334;28;20537;-72
2022/08/24 05:06:32;;;;;;;0.00;0.00;;;17.80;99.90;;;;;;5042311;28;20444;-73
2022/08/24 05:09:05;;;;;;;0.00;0.00;;;17.90;99.90;;;;;;5047163;28;20906;-73
2022/08/24 05:11:36;;;;;;;0.00;0.00;;;17.90;99.90;;;;;;5044270;28;20815;-74
2022/08/24 05:14:04;;;;;;;0.00;0.00;;;18.00;99.90;;;;;;5048037;28;20452;-73
2022/08/24 05:16:36;;;;;;;0.00;0.00;;;18.00;99.90;;;;;;5049257;28;20959;-73
2022/08/24 05:19:06;;;;;;;0.00;0.00;;;18.00;99.90;;;;;;5040192;28;20466;-74
2022/08/24 05:21:34;;;;;;;0.00;0.00;;;18.10;99.90;;;;;;5044497;28;20473;-74
2022/08/24 05:24:03;;;;;;;0.00;0.00;;;18.10;99.90;;;;;;5048774;28;20571;-72
2022/08/24 05:26:30;;;;;;;0.00;0.00;;;18.20;99.90;;;;;;5050234;28;20556;-73
2022/08/24 05:29:01;;;;;;;0.00;0.00;;;18.30;99.90;;;;;;5046938;28;20478;-74
2022/08/24 05:31:32;;;;;;;0.00;0.00;;;18.30;99.90;;;;;;5046288;28;20620;-73
2022/08/24 05:34:01;;;;;;;0.00;0.00;;;18.30;99.90;;;;;;5043029;28;20742;-73
2022/08/24 05:36:32;;;;;;;0.00;0.00;;;18.40;99.90;;;;;;5042994;28;20460;-77
2022/08/24 05:39:03;;;;;;;0.00;0.00;;;18.50;99.90;;;;;;5048981;28;21020;-74
2022/08/24 05:41:37;;;;;;;0.00;0.00;;;18.60;99.90;;;;;;5049354;28;20586;-69
2022/08/24 05:44:12;;;;;;;0.00;0.00;;;18.60;99.90;;;;;;5040616;28;20813;-71
2022/08/24 05:46:40;;;;;;;0.00;0.00;;;18.70;99.90;;;;;;5053428;28;20450;-71
2022/08/24 05:49:08;;;;;;;0.00;0.00;;;18.70;99.90;;;;;;5052245;28;21144;-70
2022/08/24 05:51:41;;;;;;;0.00;0.00;;;18.70;99.90;;;;;;5047302;28;20451;-76
2022/08/24 05:54:10;;;;;;;0.00;0.00;;;18.80;99.90;;;;;;5064431;28;20760;-77
2022/08/24 05:56:38;;;;;;;0.00;0.00;;;18.80;99.90;;;;;;5053735;28;20553;-76
2022/08/24 05:59:06;;;;;;;0.00;0.00;;;18.90;99.90;;;;;;5057468;28;21192;-75
2022/08/24 06:01:34;;;;;;;0.00;0.00;;;19.00;99.90;;;;;;5059606;28;20458;-75
2022/08/24 06:04:02;;;;;;;0.00;0.00;;;19.00;99.90;;;;;;5040443;28;20598;-74
2022/08/24 06:06:31;;;;;;;0.00;0.00;;;19.10;99.90;;;;;;5042942;28;20452;-75
2022/08/24 06:09:00;;;;;;;0.00;0.00;;;19.20;99.90;;;;;;5053997;28;20499;-76
2022/08/24 06:11:30;;;;;;;0.00;0.00;;;19.30;99.90;;;;;;5048006;28;20474;-76
2022/08/24 06:14:00;;;;;;;0.00;0.00;;;19.30;99.90;;;;;;5039817;28;20488;-76
2022/08/24 06:16:28;;;;;;;0.00;0.00;;;19.40;99.90;;;;;;5042998;28;20463;-77
2022/08/24 06:18:57;;;;;;;0.00;0.00;;;19.40;99.90;;;;;;5048712;28;20503;-74
2022/08/24 06:21:26;;;;;;;0.00;0.00;;;19.50;99.90;;;;;;5050972;28;20453;-76
2022/08/24 06:23:56;;;;;;;0.00;0.00;;;19.60;99.90;;;;;;5046087;28;20441;-77
2022/08/24 06:29:17;;;;;;;0.00;0.00;;;19.80;99.90;;;;;;5058639;28;20824;-75
2022/08/24 06:31:47;;;;;;;0.00;0.00;;;19.90;99.90;;;;;;5055189;28;20538;-77
2022/08/24 06:34:21;;;;;;;0.00;0.00;;;20.00;99.90;;;;;;5060997;28;20667;-74
2022/08/24 06:36:49;;;;;;;0.00;0.00;;;20.10;99.90;;;;;;5049993;28;20630;-76
2022/08/24 06:39:20;;;;;;;0.00;0.00;;;20.10;99.90;;;;;;5057910;28;20774;-77
2022/08/24 06:41:49;;;;;;;0.00;0.00;;;20.10;99.90;;;;;;5055519;28;20960;-76
2022/08/24 06:44:17;;;;;;;0.00;0.00;;;20.20;99.90;;;;;;5044886;28;20600;-76
2022/08/24 06:46:45;;;;;;;0.00;0.00;;;20.20;99.90;;;;;;5038555;28;20440;-76
2022/08/24 06:49:13;;;;;;;0.00;0.00;;;20.30;99.90;;;;;;5043785;28;20494;-76
2022/08/24 06:51:41;;;;;;;0.00;0.00;;;20.40;99.90;;;;;;5037831;28;20534;-76
2022/08/24 06:54:12;;;;;;;0.00;0.00;;;20.50;99.90;;;;;;5044062;28;20480;-73
2022/08/24 06:56:40;;;;;;;0.00;0.00;;;20.50;99.90;;;;;;5044415;28;20640;-75
2022/08/24 06:59:09;;;;;;;0.00;0.00;;;20.60;99.90;;;;;;5044791;28;20487;-73
2022/08/24 07:01:37;;;;;;;0.00;0.00;;;20.70;99.90;;;;;;5049924;28;20540;-73
2022/08/24 07:04:05;;;;;;;0.00;0.00;;;20.90;99.90;;;;;;5048497;28;20439;-72
2022/08/24 07:06:35;;;;;;;0.00;0.00;;;20.90;99.90;;;;;;5047244;28;20543;-72
2022/08/24 07:09:03;;;;;;;0.00;0.00;;;21.00;99.90;;;;;;5046864;28;20531;-73
2022/08/24 07:11:33;;;;;;;0.00;0.00;;;21.10;99.90;;;;;;5045024;28;21023;-71
2022/08/24 07:14:01;;;;;;;0.00;0.00;;;21.20;99.90;;;;;;5045689;28;21062;-72
2022/08/24 07:16:31;;;;;;;0.00;0.00;;;21.20;99.90;;;;;;5045408;28;20471;-73
2022/08/24 07:18:59;;;;;;;0.00;0.00;;;21.30;99.90;;;;;;5043224;28;20468;-73
2022/08/24 07:21:27;;;;;;;0.00;0.00;;;21.30;99.90;;;;;;5044396;28;20529;-73
2022/08/24 07:23:56;;;;;;;0.00;0.00;;;21.40;99.90;;;;;;5043943;28;20485;-73
2022/08/24 07:26:26;;;;;;;0.00;0.00;;;21.40;99.90;;;;;;5051195;28;20465;-72
2022/08/24 07:29:03;;;;;;;0.00;0.00;;;21.50;99.90;;;;;;5047675;28;20475;-76
2022/08/24 07:31:32;;;;;;;0.00;0.00;;;21.50;99.90;;;;;;5047724;28;20458;-71
2022/08/24 07:34:02;;;;;;;0.00;0.00;;;21.60;99.90;;;;;;5043059;28;21088;-71
2022/08/24 07:36:30;;;;;;;0.00;0.00;;;21.70;99.90;;;;;;5037755;28;20720;-71
2022/08/24 07:38:58;;;;;;;0.00;0.00;;;21.70;99.90;;;;;;5037563;28;20460;-71
2022/08/24 07:41:27;;;;;;;0.00;0.00;;;21.80;99.90;;;;;;5037435;28;20938;-71
2022/08/24 07:44:15;;;;;;;0.00;0.00;;;21.90;99.90;;;;;;5037386;28;20935;-69
2022/08/24 07:46:44;;;;;;;0.00;0.00;;;22.00;99.90;;;;;;5041451;28;20476;-69
2022/08/24 07:49:12;;;;;;;0.00;0.00;;;22.10;99.90;;;;;;5057296;28;20459;-69
2022/08/24 07:52:00;;;;;;;0.00;0.00;;;22.20;99.90;;;;;;5058436;28;20750;-68
2022/08/24 07:54:28;;;;;;;0.00;0.00;;;22.30;99.90;;;;;;5060373;28;20496;-68
2022/08/24 07:56:58;;;;;;;0.00;0.00;;;22.30;99.90;;;;;;5068392;28;20609;-68
2022/08/24 07:59:26;;;;;;;0.00;0.00;;;22.50;99.90;;;;;;5060917;28;20978;-69
2022/08/24 08:01:55;;;;;;;0.00;0.00;;;22.50;99.90;;;;;;5046329;28;20616;-69
2022/08/24 08:04:24;;;;;;;0.00;0.00;;;22.60;99.90;;;;;;5041481;28;20952;-69
2022/08/24 08:06:59;;;;;;;0.00;0.00;;;22.70;99.90;;;;;;5049404;28;21033;-69
2022/08/24 08:09:28;;;;;;;0.00;0.00;;;22.80;99.90;;;;;;5048603;28;20457;-68
2022/08/24 08:11:55;;;;;;;0.00;0.00;;;22.80;99.90;;;;;;5049053;28;20916;-69
2022/08/24 08:14:23;;;;;;;0.00;0.00;;;22.90;99.90;;;;;;5052850;28;20464;-69
2022/08/24 08:16:52;;;;;;;0.00;0.00;;;23.00;99.90;;;;;;5050739;28;20471;-69
2022/08/24 08:19:21;;;;;;;0.00;0.00;;;23.10;99.90;;;;;;5053544;28;20559;-69
2022/08/24 08:24:38;;;;;;;0.00;0.00;;;23.30;99.90;;;;;;5056689;28;20821;-69
2022/08/24 08:27:06;;;;;;;0.00;0.00;;;23.40;99.90;;;;;;5053892;28;20554;-69
2022/08/24 08:29:35;;;;;;;0.00;0.00;;;23.50;99.90;;;;;;5050984;28;20479;-76
2022/08/24 08:32:04;;;;;;;0.00;0.00;;;23.60;99.90;;;;;;5050186;28;21005;-77
2022/08/24 08:34:33;;;;;;;0.00;0.00;;;23.60;99.90;;;;;;5052456;28;21116;-68
2022/08/24 08:37:02;;;;;;;0.00;0.00;;;23.70;99.90;;;;;;5048856;28;20720;-68
2022/08/24 08:39:31;;;;;;;0.00;0.00;;;23.70;99.90;;;;;;5049824;28;20476;-68
2022/08/24 08:42:23;;;;;;;0.00;0.00;;;23.80;99.90;;;;;;5052650;28;20596;-68
2022/08/24 08:45:00;;;;;;;0.00;0.00;;;23.80;99.90;;;;;;5054976;28;21002;-67
2022/08/24 08:47:51;;;;;;;0.00;0.00;;;23.90;99.90;;;;;;5058632;28;20828;-66
2022/08/24 08:50:25;;;;;;;0.00;0.00;;;23.90;99.90;;;;;;5059992;28;20595;-70
2022/08/24 08:53:18;;;;;;;0.00;0.00;;;24.00;99.90;;;;;;5060121;28;20479;-70
2022/08/24 08:55:52;;;;;;;0.00;0.00;;;24.10;99.90;;;;;;5060478;28;20529;-69
2022/08/24 08:58:39;;;;;;;0.00;0.00;;;24.20;99.90;;;;;;5059374;28;20809;-68
2022/08/24 09:01:19;;;;;;;0.00;0.00;;;24.20;99.90;;;;;;5059597;28;20513;-69
2022/08/24 09:04:11;;;;;;;0.00;0.00;;;24.30;99.90;;;;;;5059164;28;20967;-68
2022/08/24 09:07:03;;;;;;;0.00;0.00;;;24.40;99.90;;;;;;5044097;28;20459;-68
2022/08/24 09:09:54;;;;;;;0.00;0.00;;;24.50;99.90;;;;;;5039260;28;20471;-69
2022/08/24 09:12:31;;;;;;;0.00;0.00;;;24.50;99.90;;;;;;5044278;28;20558;-68
2022/08/24 09:15:22;;;;;;;0.00;0.00;;;24.60;99.90;;;;;;5040639;28;20480;-68
2022/08/24 09:18:14;;;;;;;0.00;0.00;;;24.70;99.90;;;;;;5040350;28;21026;-68
2022/08/24 09:21:15;;;;;;;0.00;0.00;;;24.80;99.90;;;;;;5040071;28;20447;-69
2022/08/24 09:23:55;;;;;;;0.00;0.00;;;24.90;99.90;;;;;;5040524;28;20443;-69
2022/08/24 09:26:28;;;;;;;0.00;0.00;;;25.00;99.90;;;;;;5040759;28;20441;-69
2022/08/24 09:29:04;;;;;;;0.00;0.00;;;25.00;99.90;;;;;;5040997;28;20553;-69
2022/08/24 09:31:50;;;;;;;0.00;0.00;;;25.00;99.90;;;;;;5040776;28;20425;-69
2022/08/24 09:34:26;;;;;;;0.00;0.00;;;25.10;99.90;;;;;;5040444;28;20574;-69
2022/08/24 09:36:59;;;;;;;0.00;0.00;;;25.20;99.90;;;;;;5040023;28;20437;-68
2022/08/24 09:39:58;;;;;;;0.00;0.00;;;25.30;99.90;;;;;;5039444;28;20569;-68
2022/08/24 09:43:05;;;;;;;0.00;0.00;;;25.30;99.90;;;;;;5038803;28;20463;-69
2022/08/24 09:46:24;;;;;;;0.00;0.00;;;25.40;99.90;;;;;;5039233;28;20431;-69
2022/08/24 09:49:25;;;;;;;0.00;0.00;;;25.50;99.90;;;;;;5039492;28;20471;-69
2022/08/24 09:52:21;;;;;;;0.00;0.00;;;25.50;99.90;;;;;;5038722;28;20949;-69
2022/08/24 09:55:31;;;;;;;0.00;0.00;;;25.60;99.90;;;;;;5039336;28;20488;-70
2022/08/24 09:58:10;;;;;;;0.00;0.00;;;25.70;99.90;;;;;;4981349;28;20439;-68
2022/08/24 10:00:44;;;;;;;0.00;0.00;;;25.80;99.90;;;;;;5040098;28;20439;-69
2022/08/24 10:03:22;;;;;;;0.00;0.00;;;25.80;99.90;;;;;;5043665;28;21141;-69
2022/08/24 10:06:17;;;;;;;0.00;0.00;;;25.80;99.90;;;;;;5039926;28;20455;-69
2022/08/24 10:09:03;;;;;;;0.00;0.00;;;25.90;99.90;;;;;;5039594;28;21000;-69
2022/08/24 10:11:41;;;;;;;0.00;0.00;;;25.90;99.90;;;;;;5039019;28;20452;-69
2022/08/24 10:14:18;;;;;;;0.00;0.00;;;25.90;99.90;;;;;;5039107;28;20439;-68
2022/08/24 10:17:00;;;;;;;0.00;0.00;;;26.00;99.90;;;;;;5039351;28;20439;-68
2022/08/24 10:19:44;;;;;;;0.00;0.00;;;26.10;99.90;;;;;;5038962;28;20460;-68
2022/08/24 10:22:22;;;;;;;0.00;0.00;;;26.20;99.90;;;;;;5041974;28;20471;-69
2022/08/24 10:25:08;;;;;;;0.00;0.00;;;26.20;99.90;;;;;;5052821;28;20540;-70
2022/08/24 10:27:55;;;;;;;0.00;0.00;;;26.30;99.90;;;;;;5048371;28;20575;-71
2022/08/24 10:30:52;;;;;;;0.00;0.00;;;26.30;99.90;;;;;;5048945;28;20444;-71
2022/08/24 10:33:23;;;;;;;0.00;0.00;;;26.30;99.90;;;;;;5038998;28;21061;-70
2022/08/24 10:36:31;;;;;;;0.00;0.00;;;26.40;99.90;;;;;;5052246;28;20508;-71
2022/08/24 10:46:00;;;;;;;0.00;0.00;;;26.60;99.90;;;;;;4982697;28;20441;-73
2022/08/24 10:49:07;;;;;;;0.00;0.00;;;26.60;99.90;;;;;;5038943;28;20463;-71
2022/08/24 10:51:50;;;;;;;0.00;0.00;;;26.60;99.90;;;;;;5037580;28;20536;-71
2022/08/24 10:54:20;;;;;;;0.00;0.00;;;26.70;99.90;;;;;;5037577;28;20432;-72
2022/08/24 10:56:58;;;;;;;0.00;0.00;;;26.70;99.90;;;;;;5037862;28;20512;-70
2022/08/24 10:59:36;;;;;;;0.00;0.00;;;26.80;99.90;;;;;;5038384;28;20469;-72
2022/08/24 11:02:08;;;;;;;0.00;0.00;;;26.80;99.90;;;;;;5038185;28;21046;-70
2022/08/24 11:04:40;;;;;;;0.00;0.00;;;26.90;99.90;;;;;;5037095;28;20465;-71
2022/08/24 11:07:16;;;;;;;0.00;0.00;;;26.90;99.90;;;;;;5038695;28;20467;-71
2022/08/24 11:09:47;;;;;;;0.00;0.00;;;26.90;99.90;;;;;;5038222;28;20456;-70
2022/08/24 11:12:21;;;;;;;0.00;0.00;;;27.00;99.90;;;;;;5038490;28;20464;-71
2022/08/24 11:14:51;;;;;;;0.00;0.00;;;27.00;99.90;;;;;;5029824;28;20485;-72
2022/08/24 11:17:20;;;;;;;0.00;0.00;;;27.10;99.90;;;;;;5038019;28;20457;-70
2022/08/24 11:19:49;;;;;;;0.00;0.00;;;27.10;99.90;;;;;;5038159;28;20744;-71
2022/08/24 11:22:30;;;;;;;0.00;0.00;;;27.30;99.90;;;;;;5023954;28;20504;-73
2022/08/24 11:25:01;;;;;;;0.00;0.00;;;27.30;99.90;;;;;;5039328;28;20517;-70
2022/08/24 11:27:34;;;;;;;0.00;0.00;;;27.40;99.90;;;;;;5040529;28;20446;-71
2022/08/24 11:30:09;;;;;;;0.00;0.00;;;27.50;99.90;;;;;;5042743;28;20490;-71
2022/08/24 11:32:40;;;;;;;0.00;0.00;;;27.60;99.90;;;;;;5046548;28;20458;-71
2022/08/24 11:35:17;;;;;;;0.00;0.00;;;27.60;99.90;;;;;;5058281;28;20482;-71
2022/08/24 11:37:46;;;;;;;0.00;0.00;;;27.60;99.90;;;;;;5053060;28;20859;-71
2022/08/24 11:40:16;;;;;;;0.00;0.00;;;27.60;99.90;;;;;;5054246;28;20444;-71
2022/08/24 11:42:57;;;;;;;0.00;0.00;;;27.60;99.90;;;;;;5055545;28;20919;-71
2022/08/24 11:45:36;;;;;;;0.00;0.00;;;27.70;99.90;;;;;;5043076;28;20443;-72
2022/08/24 11:48:23;;;;;;;0.00;0.00;;;27.70;99.90;;;;;;5044344;28;20979;-70
2022/08/24 11:51:03;;;;;;;0.00;0.00;;;27.80;99.90;;;;;;5050629;28;20603;-72
2022/08/24 11:53:39;;;;;;;0.00;0.00;;;27.90;99.90;;;;;;5050817;28;20569;-71
2022/08/24 11:56:17;;;;;;;0.00;0.00;;;27.90;99.90;;;;;;5063011;28;20476;-72
2022/08/24 11:58:59;;;;;;;0.00;0.00;;;27.90;99.90;;;;;;5054955;28;20474;-72
2022/08/24 12:01:34;;;;;;;0.00;0.00;;;27.90;99.90;;;;;;5042443;28;20447;-71
2022/08/24 12:04:34;;;;;;;0.00;0.00;;;28.00;99.90;;;;;;5042154;28;20770;-71
2022/08/24 12:07:11;;;;;;;0.00;0.00;;;28.00;99.90;;;;;;5062945;28;20440;-71
2022/08/24 12:09:57;;;;;;;0.00;0.00;;;28.10;99.90;;;;;;5068905;28;20469;-70
2022/08/24 12:12:32;;;;;;;0.00;0.00;;;28.10;99.90;;;;;;5062450;28;20436;-71
2022/08/24 12:15:09;;;;;;;0.00;0.00;;;28.10;99.90;;;;;;5062241;28;20442;-72
2022/08/24 12:17:42;;;;;;;0.00;0.00;;;28.20;99.90;;;;;;5051131;28;20456;-73
2022/08/24 12:20:22;;;;;;;0.00;0.00;;;28.20;99.90;;;;;;5053072;28;20469;-73
2022/08/24 12:22:52;;;;;;;0.00;0.00;;;28.20;99.90;;;;;;5042682;28;20951;-72
2022/08/24 12:28:06;;;;;;;0.00;0.00;;;28.30;99.90;;;;;;5041791;28;20451;-75
2022/08/24 12:30:34;;;;;;;0.00;0.00;;;28.40;99.90;;;;;;5060509;28;20457;-73
2022/08/24 12:33:08;;;;;;;0.00;0.00;;;28.40;99.90;;;;;;5041035;28;20466;-72
2022/08/24 12:35:41;;;;;;;0.00;0.00;;;28.40;99.90;;;;;;5040737;28;20474;-73
2022/08/24 12:38:14;;;;;;;0.00;0.00;;;28.40;99.90;;;;;;5044752;28;21007;-71
2022/08/24 12:40:46;;;;;;;0.00;0.00;;;28.50;99.90;;;;;;5041663;28;20981;-73
2022/08/24 12:43:18;;;;;;;0.00;0.00;;;28.50;99.90;;;;;;5060332;28;20774;-73
2022/08/24 12:45:46;;;;;;;0.00;0.00;;;28.50;99.90;;;;;;5049135;28;20519;-73
2022/08/24 12:48:23;;;;;;;0.00;0.00;;;28.50;99.90;;;;;;5046328;28;20464;-72
2022/08/24 12:51:07;;;;;;;0.00;0.00;;;28.50;99.90;;;;;;5051541;28;20445;-72
2022/08/24 12:53:53;;;;;;;0.00;0.00;;;28.60;99.90;;;;;;5057266;28;21024;-72
2022/08/24 12:56:45;;;;;;;0.00;0.00;;;28.60;99.90;;;;;;5058895;28;20871;-72
2022/08/24 12:59:20;;;;;;;0.00;0.00;;;28.70;99.90;;;;;;5039096;28;20467;-72
2022/08/24 13:01:58;;;;;;;0.00;0.00;;;28.70;99.90;;;;;;5052566;28;20481;-71
2022/08/24 13:04:39;;;;;;;0.00;0.00;;;28.70;99.90;;;;;;5046980;28;20561;-72
2022/08/24 13:07:10;;;;;;;0.00;0.00;;;28.70;99.90;;;;;;5041100;28;20532;-72
2022/08/24 13:09:41;;;;;;;0.00;0.00;;;28.70;99.90;;;;;;5045886;28;20483;-72
2022/08/24 13:13:07;;;;;;;0.00;0.00;;;28.80;99.90;;;;;;5043281;28;20439;-72
2022/08/24 13:16:01;;;;;;;0.00;0.00;;;28.80;99.90;;;;;;5003437;28;20518;-72
2022/08/24 13:19:06;;;;;;;0.00;0.00;;;28.90;99.90;;;;;;5043552;28;20493;-73
2022/08/24 13:21:40;;;;;;;0.00;0.00;;;28.80;99.90;;;;;;5052622;28;20462;-72
2022/08/24 13:24:43;;;;;;;0.00;0.00;;;28.80;99.90;;;;;;5052690;28;20949;-72
2022/08/24 13:27:48;;;;;;;0.00;0.00;;;28.80;99.90;;;;;;5050818;28;20440;-72
2022/08/24 13:30:50;;;;;;;0.00;0.00;;;28.80;99.90;;;;;;5040420;28;20439;-73
2022/08/24 13:33:20;;;;;;;0.00;0.00;;;28.80;99.90;;;;;;5040276;28;20493;-72
2022/08/24 13:35:58;;;;;;;0.00;0.00;;;28.80;99.90;;;;;;5047060;28;20463;-72
2022/08/24 13:38:49;;;;;;;0.00;0.00;;;28.80;99.90;;;;;;5047731;28;20471;-72
2022/08/24 13:41:44;;;;;;;0.00;0.00;;;28.90;99.90;;;;;;5049212;28;20448;-73
2022/08/24 13:44:21;;;;;;;0.00;0.00;;;28.90;99.90;;;;;;5052005;28;20447;-74
2022/08/24 13:46:59;;;;;;;0.00;0.00;;;28.90;99.90;;;;;;5045851;28;20444;-72
2022/08/24 13:50:00;;;;;;;0.00;0.00;;;28.90;99.90;;;;;;5046011;28;20548;-72
2022/08/24 13:52:38;;;;;;;0.00;0.00;;;28.90;99.90;;;;;;5048389;28;21050;-73
2022/08/24 13:55:26;;;;;;;0.00;0.00;;;28.90;99.90;;;;;;5053861;28;21009;-73
2022/08/24 13:58:20;;;;;;;0.00;0.00;;;28.90;99.90;;;;;;5040310;28;21083;-72
2022/08/24 14:00:53;;;;;;;0.00;0.00;;;28.90;99.90;;;;;;5041370;28;20463;-73